sensor_id;sensor_type;location;lat;lon;timestamp;P1;durP1;ratioP1;P2;durP2;ratioP2
59127;SDS011;44912;52.754;5.994;2023-09-19T00:02:23;13.80;;;3.10;;
59127;SDS011;44912;52.754;5.994;2023-09-19T00:04:48;13.80;;;2.67;;
59127;SDS011;44912;52.754;5.994;2023-09-19T00:07:15;13.52;;;2.20;;
59127;SDS011;44912;52.754;5.994;2023-09-19T00:09:41;10.07;;;2.17;;
59127;SDS011;44912;52.754;5.994;2023-09-19T00:12:09;11.18;;;2.00;;
59127;SDS011;44912;52.754;5.994;2023-09-19T00:14:35;12.68;;;2.22;;
59127;SDS011;44912;52.754;5.994;2023-09-19T00:17:03;13.75;;;1.92;;
59127;SDS011;44912;52.754;5.994;2023-09-19T00:19:33;13.70;;;2.75;;
59127;SDS011;44912;52.754;5.994;2023-09-19T00:22:03;9.73;;;2.58;;
59127;SDS011;44912;52.754;5.994;2023-09-19T00:24:29;13.60;;;2.60;;
59127;SDS011;44912;52.754;5.994;2023-09-19T00:26:56;10.27;;;2.30;;
59127;SDS011;44912;52.754;5.994;2023-09-19T00:29:23;10.02;;;1.90;;
59127;SDS011;44912;52.754;5.994;2023-09-19T00:31:54;10.52;;;2.03;;
59127;SDS011;44912;52.754;5.994;2023-09-19T00:34:20;12.50;;;2.03;;
59127;SDS011;44912;52.754;5.994;2023-09-19T00:36:45;8.63;;;2.15;;
59127;SDS011;44912;52.754;5.994;2023-09-19T00:39:11;8.35;;;1.95;;
59127;SDS011;44912;52.754;5.994;2023-09-19T00:41:36;7.35;;;1.80;;
59127;SDS011;44912;52.754;5.994;2023-09-19T00:44:03;8.50;;;2.15;;
59127;SDS011;44912;52.754;5.994;2023-09-19T00:46:29;8.40;;;2.00;;
59127;SDS011;44912;52.754;5.994;2023-09-19T00:48:57;9.40;;;2.35;;
59127;SDS011;44912;52.754;5.994;2023-09-19T00:51:24;9.18;;;1.92;;
59127;SDS011;44912;52.754;5.994;2023-09-19T00:53:51;9.02;;;1.98;;
59127;SDS011;44912;52.754;5.994;2023-09-19T00:56:17;10.73;;;2.88;;
59127;SDS011;44912;52.754;5.994;2023-09-19T00:58:44;10.07;;;1.88;;
59127;SDS011;44912;52.754;5.994;2023-09-19T01:01:11;11.23;;;2.03;;
59127;SDS011;44912;52.754;5.994;2023-09-19T01:03:39;9.88;;;1.70;;
59127;SDS011;44912;52.754;5.994;2023-09-19T01:06:06;11.98;;;2.00;;
59127;SDS011;44912;52.754;5.994;2023-09-19T01:08:32;8.73;;;1.45;;
59127;SDS011;44912;52.754;5.994;2023-09-19T01:11:01;6.60;;;1.70;;
59127;SDS011;44912;52.754;5.994;2023-09-19T01:16:36;7.40;;;1.33;;
59127;SDS011;44912;52.754;5.994;2023-09-19T01:19:49;7.82;;;1.65;;
59127;SDS011;44912;52.754;5.994;2023-09-19T01:25:07;9.45;;;2.33;;
59127;SDS011;44912;52.754;5.994;2023-09-19T01:30:56;8.90;;;1.63;;
59127;SDS011;44912;52.754;5.994;2023-09-19T01:33:25;9.13;;;1.60;;
59127;SDS011;44912;52.754;5.994;2023-09-19T01:35:51;7.13;;;1.40;;
59127;SDS011;44912;52.754;5.994;2023-09-19T01:38:18;6.28;;;1.95;;
59127;SDS011;44912;52.754;5.994;2023-09-19T01:40:48;7.68;;;1.75;;
59127;SDS011;44912;52.754;5.994;2023-09-19T01:43:41;8.18;;;2.05;;
59127;SDS011;44912;52.754;5.994;2023-09-19T01:49:15;8.88;;;1.70;;
59127;SDS011;44912;52.754;5.994;2023-09-19T01:52:11;10.85;;;2.60;;
59127;SDS011;44912;52.754;5.994;2023-09-19T01:54:55;9.18;;;1.88;;
59127;SDS011;44912;52.754;5.994;2023-09-19T02:00:02;9.35;;;2.13;;
59127;SDS011;44912;52.754;5.994;2023-09-19T02:02:37;15.02;;;2.40;;
59127;SDS011;44912;52.754;5.994;2023-09-19T02:05:05;7.72;;;1.67;;
59127;SDS011;44912;52.754;5.994;2023-09-19T02:07:31;7.03;;;1.95;;
59127;SDS011;44912;52.754;5.994;2023-09-19T02:09:58;9.27;;;1.70;;
59127;SDS011;44912;52.754;5.994;2023-09-19T02:12:28;7.28;;;1.98;;
59127;SDS011;44912;52.754;5.994;2023-09-19T02:14:55;9.23;;;1.83;;
59127;SDS011;44912;52.754;5.994;2023-09-19T02:17:22;6.88;;;1.80;;
59127;SDS011;44912;52.754;5.994;2023-09-19T02:19:51;12.73;;;2.30;;
59127;SDS011;44912;52.754;5.994;2023-09-19T02:22:23;10.20;;;1.88;;
59127;SDS011;44912;52.754;5.994;2023-09-19T02:24:49;13.02;;;1.98;;
59127;SDS011;44912;52.754;5.994;2023-09-19T02:27:16;10.10;;;1.65;;
59127;SDS011;44912;52.754;5.994;2023-09-19T02:29:42;11.25;;;1.75;;
59127;SDS011;44912;52.754;5.994;2023-09-19T02:32:08;8.90;;;1.98;;
59127;SDS011;44912;52.754;5.994;2023-09-19T02:34:37;11.02;;;2.05;;
59127;SDS011;44912;52.754;5.994;2023-09-19T02:37:04;10.35;;;1.92;;
59127;SDS011;44912;52.754;5.994;2023-09-19T02:39:33;9.20;;;1.75;;
59127;SDS011;44912;52.754;5.994;2023-09-19T02:41:59;7.68;;;1.65;;
59127;SDS011;44912;52.754;5.994;2023-09-19T02:44:25;9.10;;;1.83;;
59127;SDS011;44912;52.754;5.994;2023-09-19T02:46:50;7.28;;;1.63;;
59127;SDS011;44912;52.754;5.994;2023-09-19T02:49:16;10.77;;;1.92;;
59127;SDS011;44912;52.754;5.994;2023-09-19T02:51:43;10.10;;;2.00;;
59127;SDS011;44912;52.754;5.994;2023-09-19T02:54:09;8.90;;;1.63;;
59127;SDS011;44912;52.754;5.994;2023-09-19T02:56:35;9.13;;;1.92;;
59127;SDS011;44912;52.754;5.994;2023-09-19T02:59:01;9.77;;;2.20;;
59127;SDS011;44912;52.754;5.994;2023-09-19T03:01:26;10.13;;;2.17;;
59127;SDS011;44912;52.754;5.994;2023-09-19T03:03:53;8.82;;;1.90;;
59127;SDS011;44912;52.754;5.994;2023-09-19T03:06:19;8.43;;;1.70;;
59127;SDS011;44912;52.754;5.994;2023-09-19T03:08:46;9.60;;;1.80;;
59127;SDS011;44912;52.754;5.994;2023-09-19T03:11:13;7.13;;;1.80;;
59127;SDS011;44912;52.754;5.994;2023-09-19T03:13:41;6.97;;;1.77;;
59127;SDS011;44912;52.754;5.994;2023-09-19T03:16:07;10.43;;;2.35;;
59127;SDS011;44912;52.754;5.994;2023-09-19T03:18:34;10.32;;;1.70;;
59127;SDS011;44912;52.754;5.994;2023-09-19T03:20:59;15.07;;;1.95;;
59127;SDS011;44912;52.754;5.994;2023-09-19T03:23:26;8.30;;;1.90;;
59127;SDS011;44912;52.754;5.994;2023-09-19T03:25:52;8.57;;;1.80;;
59127;SDS011;44912;52.754;5.994;2023-09-19T03:28:21;9.65;;;1.98;;
59127;SDS011;44912;52.754;5.994;2023-09-19T03:31:04;13.30;;;2.55;;
59127;SDS011;44912;52.754;5.994;2023-09-19T03:33:31;8.27;;;1.83;;
59127;SDS011;44912;52.754;5.994;2023-09-19T03:35:58;11.10;;;1.88;;
59127;SDS011;44912;52.754;5.994;2023-09-19T03:38:24;13.52;;;2.30;;
59127;SDS011;44912;52.754;5.994;2023-09-19T03:40:50;12.60;;;2.05;;
59127;SDS011;44912;52.754;5.994;2023-09-19T03:43:15;8.48;;;1.80;;
59127;SDS011;44912;52.754;5.994;2023-09-19T03:45:41;7.22;;;1.80;;
59127;SDS011;44912;52.754;5.994;2023-09-19T03:48:10;10.32;;;2.00;;
59127;SDS011;44912;52.754;5.994;2023-09-19T03:50:36;11.32;;;1.83;;
59127;SDS011;44912;52.754;5.994;2023-09-19T03:53:02;14.75;;;2.22;;
59127;SDS011;44912;52.754;5.994;2023-09-19T03:55:28;12.32;;;1.80;;
59127;SDS011;44912;52.754;5.994;2023-09-19T03:57:55;11.88;;;2.58;;
59127;SDS011;44912;52.754;5.994;2023-09-19T04:00:21;8.55;;;2.03;;
59127;SDS011;44912;52.754;5.994;2023-09-19T04:02:49;8.02;;;2.03;;
59127;SDS011;44912;52.754;5.994;2023-09-19T04:05:16;12.93;;;2.55;;
59127;SDS011;44912;52.754;5.994;2023-09-19T04:07:42;8.63;;;1.70;;
59127;SDS011;44912;52.754;5.994;2023-09-19T04:10:08;8.57;;;1.77;;
59127;SDS011;44912;52.754;5.994;2023-09-19T04:12:36;8.48;;;2.28;;
59127;SDS011;44912;52.754;5.994;2023-09-19T04:15:02;10.20;;;1.85;;
59127;SDS011;44912;52.754;5.994;2023-09-19T04:17:28;11.13;;;2.28;;
59127;SDS011;44912;52.754;5.994;2023-09-19T04:19:53;11.00;;;2.47;;
59127;SDS011;44912;52.754;5.994;2023-09-19T04:22:19;13.23;;;2.15;;
59127;SDS011;44912;52.754;5.994;2023-09-19T04:24:44;9.23;;;1.90;;
59127;SDS011;44912;52.754;5.994;2023-09-19T04:27:10;10.75;;;1.90;;
59127;SDS011;44912;52.754;5.994;2023-09-19T04:29:39;11.80;;;2.10;;
59127;SDS011;44912;52.754;5.994;2023-09-19T04:32:06;18.10;;;3.22;;
59127;SDS011;44912;52.754;5.994;2023-09-19T04:34:32;14.68;;;2.40;;
59127;SDS011;44912;52.754;5.994;2023-09-19T04:36:59;9.60;;;2.38;;
59127;SDS011;44912;52.754;5.994;2023-09-19T04:39:25;8.38;;;2.17;;
59127;SDS011;44912;52.754;5.994;2023-09-19T04:41:51;13.32;;;2.78;;
59127;SDS011;44912;52.754;5.994;2023-09-19T04:44:17;16.77;;;2.65;;
59127;SDS011;44912;52.754;5.994;2023-09-19T04:46:43;14.00;;;2.40;;
59127;SDS011;44912;52.754;5.994;2023-09-19T04:49:10;9.45;;;2.17;;
59127;SDS011;44912;52.754;5.994;2023-09-19T04:51:36;15.55;;;2.33;;
59127;SDS011;44912;52.754;5.994;2023-09-19T04:54:01;12.00;;;2.33;;
59127;SDS011;44912;52.754;5.994;2023-09-19T04:56:28;12.20;;;2.78;;
59127;SDS011;44912;52.754;5.994;2023-09-19T04:58:53;11.55;;;2.90;;
59127;SDS011;44912;52.754;5.994;2023-09-19T05:01:19;12.43;;;2.50;;
59127;SDS011;44912;52.754;5.994;2023-09-19T05:03:48;11.40;;;2.25;;
59127;SDS011;44912;52.754;5.994;2023-09-19T05:06:17;12.07;;;2.42;;
59127;SDS011;44912;52.754;5.994;2023-09-19T05:08:43;10.85;;;2.50;;
59127;SDS011;44912;52.754;5.994;2023-09-19T05:11:09;17.70;;;2.53;;
59127;SDS011;44912;52.754;5.994;2023-09-19T05:13:34;12.23;;;2.60;;
59127;SDS011;44912;52.754;5.994;2023-09-19T05:16:00;11.82;;;2.22;;
59127;SDS011;44912;52.754;5.994;2023-09-19T05:18:28;11.68;;;2.55;;
59127;SDS011;44912;52.754;5.994;2023-09-19T05:20:54;11.38;;;2.38;;
59127;SDS011;44912;52.754;5.994;2023-09-19T05:23:21;11.10;;;2.17;;
59127;SDS011;44912;52.754;5.994;2023-09-19T05:25:46;13.77;;;2.53;;
59127;SDS011;44912;52.754;5.994;2023-09-19T05:28:12;15.27;;;2.85;;
59127;SDS011;44912;52.754;5.994;2023-09-19T05:30:40;13.48;;;2.63;;
59127;SDS011;44912;52.754;5.994;2023-09-19T05:33:06;16.20;;;2.55;;
59127;SDS011;44912;52.754;5.994;2023-09-19T05:35:32;10.63;;;2.30;;
59127;SDS011;44912;52.754;5.994;2023-09-19T05:37:58;12.90;;;2.22;;
59127;SDS011;44912;52.754;5.994;2023-09-19T05:40:24;15.38;;;3.05;;
59127;SDS011;44912;52.754;5.994;2023-09-19T05:42:51;12.45;;;2.42;;
59127;SDS011;44912;52.754;5.994;2023-09-19T05:45:16;10.77;;;2.10;;
59127;SDS011;44912;52.754;5.994;2023-09-19T05:47:49;12.48;;;2.90;;
59127;SDS011;44912;52.754;5.994;2023-09-19T05:50:16;13.05;;;2.35;;
59127;SDS011;44912;52.754;5.994;2023-09-19T05:52:43;12.25;;;2.30;;
59127;SDS011;44912;52.754;5.994;2023-09-19T05:55:17;15.15;;;2.50;;
59127;SDS011;44912;52.754;5.994;2023-09-19T05:57:42;13.90;;;3.05;;
59127;SDS011;44912;52.754;5.994;2023-09-19T06:00:08;17.45;;;3.28;;
59127;SDS011;44912;52.754;5.994;2023-09-19T06:02:36;15.63;;;2.38;;
59127;SDS011;44912;52.754;5.994;2023-09-19T06:05:03;10.93;;;2.58;;
59127;SDS011;44912;52.754;5.994;2023-09-19T06:07:31;12.98;;;2.50;;
59127;SDS011;44912;52.754;5.994;2023-09-19T06:10:01;14.50;;;2.63;;
59127;SDS011;44912;52.754;5.994;2023-09-19T06:12:31;10.10;;;2.40;;
59127;SDS011;44912;52.754;5.994;2023-09-19T06:14:58;13.70;;;2.80;;
59127;SDS011;44912;52.754;5.994;2023-09-19T06:17:24;12.38;;;2.70;;
59127;SDS011;44912;52.754;5.994;2023-09-19T06:19:52;12.55;;;2.42;;
59127;SDS011;44912;52.754;5.994;2023-09-19T06:22:18;13.60;;;2.80;;
59127;SDS011;44912;52.754;5.994;2023-09-19T06:24:43;13.02;;;2.33;;
59127;SDS011;44912;52.754;5.994;2023-09-19T06:27:09;9.95;;;2.63;;
59127;SDS011;44912;52.754;5.994;2023-09-19T06:29:35;11.60;;;2.78;;
59127;SDS011;44912;52.754;5.994;2023-09-19T06:32:02;10.20;;;2.38;;
59127;SDS011;44912;52.754;5.994;2023-09-19T06:34:32;11.57;;;2.33;;
59127;SDS011;44912;52.754;5.994;2023-09-19T06:36:58;13.05;;;2.58;;
59127;SDS011;44912;52.754;5.994;2023-09-19T06:39:23;10.55;;;2.20;;
59127;SDS011;44912;52.754;5.994;2023-09-19T06:41:50;12.52;;;2.30;;
59127;SDS011;44912;52.754;5.994;2023-09-19T06:44:18;12.68;;;2.45;;
59127;SDS011;44912;52.754;5.994;2023-09-19T06:46:46;13.93;;;2.50;;
59127;SDS011;44912;52.754;5.994;2023-09-19T06:49:15;11.38;;;2.83;;
59127;SDS011;44912;52.754;5.994;2023-09-19T06:51:40;14.75;;;3.05;;
59127;SDS011;44912;52.754;5.994;2023-09-19T06:54:07;11.23;;;2.33;;
59127;SDS011;44912;52.754;5.994;2023-09-19T06:56:32;11.48;;;2.60;;
59127;SDS011;44912;52.754;5.994;2023-09-19T06:58:58;10.68;;;2.70;;
59127;SDS011;44912;52.754;5.994;2023-09-19T07:01:23;15.45;;;2.33;;
59127;SDS011;44912;52.754;5.994;2023-09-19T07:03:50;12.27;;;2.28;;
59127;SDS011;44912;52.754;5.994;2023-09-19T07:06:15;10.20;;;2.35;;
59127;SDS011;44912;52.754;5.994;2023-09-19T07:08:41;11.40;;;2.38;;
59127;SDS011;44912;52.754;5.994;2023-09-19T07:11:09;11.23;;;2.53;;
59127;SDS011;44912;52.754;5.994;2023-09-19T07:13:35;11.32;;;2.83;;
59127;SDS011;44912;52.754;5.994;2023-09-19T07:16:01;10.32;;;2.28;;
59127;SDS011;44912;52.754;5.994;2023-09-19T07:18:27;11.13;;;2.20;;
59127;SDS011;44912;52.754;5.994;2023-09-19T07:20:56;13.25;;;2.75;;
59127;SDS011;44912;52.754;5.994;2023-09-19T07:23:26;12.77;;;3.00;;
59127;SDS011;44912;52.754;5.994;2023-09-19T07:25:51;11.05;;;2.40;;
59127;SDS011;44912;52.754;5.994;2023-09-19T07:28:21;10.52;;;2.58;;
59127;SDS011;44912;52.754;5.994;2023-09-19T07:30:47;11.68;;;2.40;;
59127;SDS011;44912;52.754;5.994;2023-09-19T07:33:13;13.05;;;2.75;;
59127;SDS011;44912;52.754;5.994;2023-09-19T07:35:39;11.95;;;2.55;;
59127;SDS011;44912;52.754;5.994;2023-09-19T07:38:05;13.50;;;2.60;;
59127;SDS011;44912;52.754;5.994;2023-09-19T07:40:31;12.63;;;2.45;;
59127;SDS011;44912;52.754;5.994;2023-09-19T07:42:56;12.57;;;2.47;;
59127;SDS011;44912;52.754;5.994;2023-09-19T07:45:26;14.18;;;2.60;;
59127;SDS011;44912;52.754;5.994;2023-09-19T07:47:52;15.23;;;2.75;;
59127;SDS011;44912;52.754;5.994;2023-09-19T07:50:20;13.00;;;2.55;;
59127;SDS011;44912;52.754;5.994;2023-09-19T07:52:49;12.02;;;2.70;;
59127;SDS011;44912;52.754;5.994;2023-09-19T07:55:18;15.27;;;3.25;;
59127;SDS011;44912;52.754;5.994;2023-09-19T07:57:48;9.85;;;2.55;;
59127;SDS011;44912;52.754;5.994;2023-09-19T08:00:14;12.82;;;3.38;;
59127;SDS011;44912;52.754;5.994;2023-09-19T08:02:40;11.77;;;2.55;;
59127;SDS011;44912;52.754;5.994;2023-09-19T08:05:07;10.48;;;2.67;;
59127;SDS011;44912;52.754;5.994;2023-09-19T08:07:39;11.20;;;2.42;;
59127;SDS011;44912;52.754;5.994;2023-09-19T08:10:07;16.35;;;2.90;;
59127;SDS011;44912;52.754;5.994;2023-09-19T08:12:38;12.88;;;2.75;;
59127;SDS011;44912;52.754;5.994;2023-09-19T08:15:11;13.70;;;3.20;;
59127;SDS011;44912;52.754;5.994;2023-09-19T08:17:40;13.10;;;2.88;;
59127;SDS011;44912;52.754;5.994;2023-09-19T08:20:06;13.85;;;3.03;;
59127;SDS011;44912;52.754;5.994;2023-09-19T08:22:32;13.25;;;2.67;;
59127;SDS011;44912;52.754;5.994;2023-09-19T08:24:59;13.95;;;2.95;;
59127;SDS011;44912;52.754;5.994;2023-09-19T08:27:29;12.95;;;2.88;;
59127;SDS011;44912;52.754;5.994;2023-09-19T08:29:55;15.02;;;2.88;;
59127;SDS011;44912;52.754;5.994;2023-09-19T08:32:21;15.25;;;2.80;;
59127;SDS011;44912;52.754;5.994;2023-09-19T08:34:49;13.55;;;2.63;;
59127;SDS011;44912;52.754;5.994;2023-09-19T08:37:15;13.52;;;3.03;;
59127;SDS011;44912;52.754;5.994;2023-09-19T08:39:42;15.27;;;2.75;;
59127;SDS011;44912;52.754;5.994;2023-09-19T08:42:08;12.38;;;2.80;;
59127;SDS011;44912;52.754;5.994;2023-09-19T08:44:36;15.55;;;3.00;;
59127;SDS011;44912;52.754;5.994;2023-09-19T08:47:08;16.50;;;2.90;;
59127;SDS011;44912;52.754;5.994;2023-09-19T08:52:25;15.70;;;2.92;;
59127;SDS011;44912;52.754;5.994;2023-09-19T08:54:53;14.63;;;3.30;;
59127;SDS011;44912;52.754;5.994;2023-09-19T08:57:27;16.80;;;3.00;;
59127;SDS011;44912;52.754;5.994;2023-09-19T08:59:58;13.77;;;2.95;;
59127;SDS011;44912;52.754;5.994;2023-09-19T09:02:25;10.77;;;2.53;;
59127;SDS011;44912;52.754;5.994;2023-09-19T09:04:52;11.88;;;2.65;;
59127;SDS011;44912;52.754;5.994;2023-09-19T09:07:19;12.13;;;3.08;;
59127;SDS011;44912;52.754;5.994;2023-09-19T09:09:46;15.20;;;2.50;;
59127;SDS011;44912;52.754;5.994;2023-09-19T09:12:13;12.73;;;2.70;;
59127;SDS011;44912;52.754;5.994;2023-09-19T09:14:40;11.32;;;2.28;;
59127;SDS011;44912;52.754;5.994;2023-09-19T09:17:09;14.88;;;2.70;;
59127;SDS011;44912;52.754;5.994;2023-09-19T09:19:35;13.90;;;2.78;;
59127;SDS011;44912;52.754;5.994;2023-09-19T09:22:06;13.93;;;2.70;;
59127;SDS011;44912;52.754;5.994;2023-09-19T09:24:33;13.10;;;2.67;;
59127;SDS011;44912;52.754;5.994;2023-09-19T09:26:59;16.35;;;3.00;;
59127;SDS011;44912;52.754;5.994;2023-09-19T09:32:16;13.65;;;3.15;;
59127;SDS011;44912;52.754;5.994;2023-09-19T09:34:53;17.90;;;3.38;;
59127;SDS011;44912;52.754;5.994;2023-09-19T09:37:20;15.10;;;2.60;;
59127;SDS011;44912;52.754;5.994;2023-09-19T09:39:54;13.27;;;2.75;;
59127;SDS011;44912;52.754;5.994;2023-09-19T09:42:34;17.03;;;2.87;;
59127;SDS011;44912;52.754;5.994;2023-09-19T09:45:16;15.57;;;2.90;;
59127;SDS011;44912;52.754;5.994;2023-09-19T09:50:23;16.02;;;3.63;;
59127;SDS011;44912;52.754;5.994;2023-09-19T09:52:55;12.63;;;2.85;;
59127;SDS011;44912;52.754;5.994;2023-09-19T09:55:36;14.25;;;3.17;;
59127;SDS011;44912;52.754;5.994;2023-09-19T09:58:23;16.67;;;3.80;;
59127;SDS011;44912;52.754;5.994;2023-09-19T10:00:54;15.30;;;3.75;;
59127;SDS011;44912;52.754;5.994;2023-09-19T10:03:33;15.30;;;3.53;;
59127;SDS011;44912;52.754;5.994;2023-09-19T10:06:06;14.20;;;2.90;;
59127;SDS011;44912;52.754;5.994;2023-09-19T10:09:03;15.38;;;3.45;;
59127;SDS011;44912;52.754;5.994;2023-09-19T10:11:44;14.85;;;3.20;;
59127;SDS011;44912;52.754;5.994;2023-09-19T10:14:16;14.93;;;2.70;;
59127;SDS011;44912;52.754;5.994;2023-09-19T10:16:49;14.43;;;3.47;;
59127;SDS011;44912;52.754;5.994;2023-09-19T10:19:16;11.77;;;3.00;;
59127;SDS011;44912;52.754;5.994;2023-09-19T10:22:04;12.98;;;2.58;;
59127;SDS011;44912;52.754;5.994;2023-09-19T10:24:30;11.52;;;2.72;;
59127;SDS011;44912;52.754;5.994;2023-09-19T10:27:00;21.27;;;3.25;;
59127;SDS011;44912;52.754;5.994;2023-09-19T10:29:26;13.77;;;2.83;;
59127;SDS011;44912;52.754;5.994;2023-09-19T10:31:55;13.45;;;3.20;;
59127;SDS011;44912;52.754;5.994;2023-09-19T10:34:23;10.15;;;2.63;;
59127;SDS011;44912;52.754;5.994;2023-09-19T10:36:50;14.05;;;2.75;;
59127;SDS011;44912;52.754;5.994;2023-09-19T10:39:17;12.77;;;2.60;;
59127;SDS011;44912;52.754;5.994;2023-09-19T10:41:44;13.27;;;3.05;;
59127;SDS011;44912;52.754;5.994;2023-09-19T10:44:25;13.02;;;2.47;;
59127;SDS011;44912;52.754;5.994;2023-09-19T10:46:51;13.23;;;2.53;;
59127;SDS011;44912;52.754;5.994;2023-09-19T10:49:18;13.35;;;2.53;;
59127;SDS011;44912;52.754;5.994;2023-09-19T10:51:45;12.57;;;2.65;;
59127;SDS011;44912;52.754;5.994;2023-09-19T10:54:15;16.55;;;3.17;;
59127;SDS011;44912;52.754;5.994;2023-09-19T10:56:44;12.10;;;2.75;;
59127;SDS011;44912;52.754;5.994;2023-09-19T10:59:17;13.40;;;2.80;;
59127;SDS011;44912;52.754;5.994;2023-09-19T11:01:54;12.93;;;2.97;;
59127;SDS011;44912;52.754;5.994;2023-09-19T11:04:30;15.65;;;2.95;;
59127;SDS011;44912;52.754;5.994;2023-09-19T11:07:02;15.70;;;2.65;;
59127;SDS011;44912;52.754;5.994;2023-09-19T11:09:45;12.18;;;2.33;;
59127;SDS011;44912;52.754;5.994;2023-09-19T11:15:02;15.63;;;2.63;;
59127;SDS011;44912;52.754;5.994;2023-09-19T11:17:33;14.32;;;2.58;;
59127;SDS011;44912;52.754;5.994;2023-09-19T11:23:17;11.57;;;2.80;;
59127;SDS011;44912;52.754;5.994;2023-09-19T11:33:17;10.70;;;2.53;;
59127;SDS011;44912;52.754;5.994;2023-09-19T11:36:09;10.13;;;2.55;;
59127;SDS011;44912;52.754;5.994;2023-09-19T11:43:49;12.73;;;2.55;;
59127;SDS011;44912;52.754;5.994;2023-09-19T11:46:16;11.98;;;2.20;;
59127;SDS011;44912;52.754;5.994;2023-09-19T11:48:47;12.55;;;2.60;;
59127;SDS011;44912;52.754;5.994;2023-09-19T11:51:23;10.65;;;2.60;;
59127;SDS011;44912;52.754;5.994;2023-09-19T11:53:53;11.00;;;2.13;;
59127;SDS011;44912;52.754;5.994;2023-09-19T11:56:20;10.85;;;1.98;;
59127;SDS011;44912;52.754;5.994;2023-09-19T11:58:49;13.20;;;2.00;;
59127;SDS011;44912;52.754;5.994;2023-09-19T12:03:57;10.23;;;1.98;;
59127;SDS011;44912;52.754;5.994;2023-09-19T12:06:28;8.80;;;2.08;;
59127;SDS011;44912;52.754;5.994;2023-09-19T12:08:55;10.82;;;1.83;;
59127;SDS011;44912;52.754;5.994;2023-09-19T12:11:22;10.32;;;2.15;;
59127;SDS011;44912;52.754;5.994;2023-09-19T12:13:48;10.05;;;2.20;;
59127;SDS011;44912;52.754;5.994;2023-09-19T12:16:15;10.10;;;1.80;;
59127;SDS011;44912;52.754;5.994;2023-09-19T12:18:42;13.30;;;2.10;;
59127;SDS011;44912;52.754;5.994;2023-09-19T12:21:22;13.13;;;1.80;;
59127;SDS011;44912;52.754;5.994;2023-09-19T12:26:26;7.07;;;1.60;;
59127;SDS011;44912;52.754;5.994;2023-09-19T12:28:54;11.45;;;2.53;;
59127;SDS011;44912;52.754;5.994;2023-09-19T12:31:20;7.93;;;1.90;;
59127;SDS011;44912;52.754;5.994;2023-09-19T12:33:45;10.75;;;2.40;;
59127;SDS011;44912;52.754;5.994;2023-09-19T12:36:23;13.43;;;2.17;;
59127;SDS011;44912;52.754;5.994;2023-09-19T12:38:55;8.50;;;1.70;;
59127;SDS011;44912;52.754;5.994;2023-09-19T12:41:24;8.88;;;1.50;;
59127;SDS011;44912;52.754;5.994;2023-09-19T12:43:51;9.77;;;1.77;;
59127;SDS011;44912;52.754;5.994;2023-09-19T12:46:21;9.50;;;1.80;;
59127;SDS011;44912;52.754;5.994;2023-09-19T12:49:36;9.63;;;1.75;;
59127;SDS011;44912;52.754;5.994;2023-09-19T12:51:42;9.15;;;1.60;;
59127;SDS011;44912;52.754;5.994;2023-09-19T12:54:08;8.85;;;1.58;;
59127;SDS011;44912;52.754;5.994;2023-09-19T12:56:42;11.15;;;1.75;;
59127;SDS011;44912;52.754;5.994;2023-09-19T12:59:13;11.13;;;2.15;;
59127;SDS011;44912;52.754;5.994;2023-09-19T13:01:42;7.65;;;1.40;;
59127;SDS011;44912;52.754;5.994;2023-09-19T13:06:45;11.10;;;1.80;;
59127;SDS011;44912;52.754;5.994;2023-09-19T13:09:15;8.65;;;2.10;;
59127;SDS011;44912;52.754;5.994;2023-09-19T13:11:42;8.45;;;1.90;;
59127;SDS011;44912;52.754;5.994;2023-09-19T13:14:23;7.18;;;1.58;;
59127;SDS011;44912;52.754;5.994;2023-09-19T13:19:41;8.15;;;1.42;;
59127;SDS011;44912;52.754;5.994;2023-09-19T13:25:05;9.32;;;1.50;;
59127;SDS011;44912;52.754;5.994;2023-09-19T13:27:33;9.60;;;1.55;;
59127;SDS011;44912;52.754;5.994;2023-09-19T13:29:59;5.80;;;1.10;;
59127;SDS011;44912;52.754;5.994;2023-09-19T13:32:25;8.77;;;2.40;;
59127;SDS011;44912;52.754;5.994;2023-09-19T13:34:51;5.95;;;1.35;;
59127;SDS011;44912;52.754;5.994;2023-09-19T13:37:17;10.00;;;1.58;;
59127;SDS011;44912;52.754;5.994;2023-09-19T13:39:43;7.53;;;1.58;;
59127;SDS011;44912;52.754;5.994;2023-09-19T13:42:12;6.53;;;1.25;;
59127;SDS011;44912;52.754;5.994;2023-09-19T13:44:38;8.55;;;1.60;;
59127;SDS011;44912;52.754;5.994;2023-09-19T13:47:06;7.88;;;1.50;;
59127;SDS011;44912;52.754;5.994;2023-09-19T13:49:34;7.32;;;1.42;;
59127;SDS011;44912;52.754;5.994;2023-09-19T13:52:01;8.90;;;1.77;;
59127;SDS011;44912;52.754;5.994;2023-09-19T13:54:30;9.10;;;1.70;;
59127;SDS011;44912;52.754;5.994;2023-09-19T13:56:55;8.57;;;2.53;;
59127;SDS011;44912;52.754;5.994;2023-09-19T13:59:21;6.40;;;1.48;;
59127;SDS011;44912;52.754;5.994;2023-09-19T14:01:49;7.28;;;1.40;;
59127;SDS011;44912;52.754;5.994;2023-09-19T14:04:15;7.45;;;1.98;;
59127;SDS011;44912;52.754;5.994;2023-09-19T14:06:42;6.18;;;1.50;;
59127;SDS011;44912;52.754;5.994;2023-09-19T14:09:08;6.10;;;1.17;;
59127;SDS011;44912;52.754;5.994;2023-09-19T14:11:35;10.02;;;1.50;;
59127;SDS011;44912;52.754;5.994;2023-09-19T14:14:01;6.72;;;1.48;;
59127;SDS011;44912;52.754;5.994;2023-09-19T14:16:26;8.18;;;1.40;;
59127;SDS011;44912;52.754;5.994;2023-09-19T14:18:55;7.50;;;1.50;;
59127;SDS011;44912;52.754;5.994;2023-09-19T14:21:20;5.57;;;1.50;;
59127;SDS011;44912;52.754;5.994;2023-09-19T14:23:46;5.38;;;1.40;;
59127;SDS011;44912;52.754;5.994;2023-09-19T14:26:11;5.57;;;1.27;;
59127;SDS011;44912;52.754;5.994;2023-09-19T14:28:37;7.28;;;1.42;;
59127;SDS011;44912;52.754;5.994;2023-09-19T14:31:04;9.93;;;1.98;;
59127;SDS011;44912;52.754;5.994;2023-09-19T14:33:33;6.00;;;1.20;;
59127;SDS011;44912;52.754;5.994;2023-09-19T14:36:01;6.55;;;1.80;;
59127;SDS011;44912;52.754;5.994;2023-09-19T14:38:30;6.38;;;1.67;;
59127;SDS011;44912;52.754;5.994;2023-09-19T14:40:58;5.05;;;1.50;;
59127;SDS011;44912;52.754;5.994;2023-09-19T14:43:25;7.00;;;1.70;;
59127;SDS011;44912;52.754;5.994;2023-09-19T14:45:50;7.07;;;1.13;;
59127;SDS011;44912;52.754;5.994;2023-09-19T14:48:16;5.15;;;1.55;;
59127;SDS011;44912;52.754;5.994;2023-09-19T14:50:42;5.80;;;1.50;;
59127;SDS011;44912;52.754;5.994;2023-09-19T14:53:09;8.20;;;1.60;;
59127;SDS011;44912;52.754;5.994;2023-09-19T14:55:38;8.63;;;1.92;;
59127;SDS011;44912;52.754;5.994;2023-09-19T14:58:09;6.68;;;1.55;;
59127;SDS011;44912;52.754;5.994;2023-09-19T15:00:34;4.95;;;1.48;;
59127;SDS011;44912;52.754;5.994;2023-09-19T15:03:00;9.00;;;1.77;;
59127;SDS011;44912;52.754;5.994;2023-09-19T15:05:27;8.63;;;1.73;;
59127;SDS011;44912;52.754;5.994;2023-09-19T15:07:54;7.50;;;1.60;;
59127;SDS011;44912;52.754;5.994;2023-09-19T15:10:21;5.38;;;1.42;;
59127;SDS011;44912;52.754;5.994;2023-09-19T15:12:47;5.00;;;1.75;;
59127;SDS011;44912;52.754;5.994;2023-09-19T15:15:13;10.40;;;1.73;;
59127;SDS011;44912;52.754;5.994;2023-09-19T15:17:39;9.60;;;1.92;;
59127;SDS011;44912;52.754;5.994;2023-09-19T15:20:05;9.57;;;1.60;;
59127;SDS011;44912;52.754;5.994;2023-09-19T15:22:35;7.38;;;1.98;;
59127;SDS011;44912;52.754;5.994;2023-09-19T15:25:01;9.02;;;2.25;;
59127;SDS011;44912;52.754;5.994;2023-09-19T15:27:29;9.20;;;2.10;;
59127;SDS011;44912;52.754;5.994;2023-09-19T15:29:56;9.35;;;2.10;;
59127;SDS011;44912;52.754;5.994;2023-09-19T15:32:23;7.25;;;1.88;;
59127;SDS011;44912;52.754;5.994;2023-09-19T15:34:49;7.15;;;1.98;;
59127;SDS011;44912;52.754;5.994;2023-09-19T15:37:15;10.30;;;2.17;;
59127;SDS011;44912;52.754;5.994;2023-09-19T15:39:41;7.47;;;2.20;;
59127;SDS011;44912;52.754;5.994;2023-09-19T15:42:06;6.72;;;1.98;;